Time;durP1;ratioP1;P1;durP2;ratioP2;P2;SDS_P1;SDS_P2;PMS_P1;PMS_P2;Temp;Humidity;BMP_temperature;BMP_pressure;BME280_temperature;BME280_humidity;BME280_pressure;Samples;Min_cycle;Max_cycle;Signal;HPM_P1;HPM_P2
2023/06/27 00:00:06;;;;;;;3.47;1.70;;;19.80;49.40;;;;;;5012860;28;20084;-72
2023/06/27 00:02:32;;;;;;;3.67;1.42;;;19.70;49.40;;;;;;4995078;28;20034;-72
2023/06/27 00:05:00;;;;;;;5.05;2.10;;;19.70;49.30;;;;;;5012498;28;20080;-73
2023/06/27 00:07:27;;;;;;;4.40;1.70;;;19.60;49.30;;;;;;5012777;28;20014;-72
2023/06/27 00:09:54;;;;;;;4.53;1.80;;;19.50;49.50;;;;;;5012695;28;20100;-73
2023/06/27 00:12:19;;;;;;;4.93;1.88;;;19.40;49.80;;;;;;5012776;28;20110;-73
2023/06/27 00:14:45;;;;;;;4.00;1.67;;;19.30;50.10;;;;;;5012816;28;20096;-73
2023/06/27 00:17:12;;;;;;;6.18;1.80;;;19.30;50.30;;;;;;5012730;28;20026;-72
2023/06/27 00:19:38;;;;;;;6.55;2.03;;;19.20;50.30;;;;;;5012598;28;20379;-73
2023/06/27 00:22:09;;;;;;;4.78;1.77;;;19.20;50.30;;;;;;5012645;28;20422;-80
2023/06/27 00:24:38;;;;;;;6.55;1.90;;;19.30;50.60;;;;;;5012773;28;20029;-76
2023/06/27 00:27:05;;;;;;;7.68;2.33;;;19.20;50.70;;;;;;5012793;28;20041;-73
2023/06/27 00:29:32;;;;;;;4.50;1.38;;;19.10;51.20;;;;;;5012677;28;20062;-72
2023/06/27 00:31:57;;;;;;;3.80;1.58;;;19.10;51.50;;;;;;5014469;28;20072;-73
2023/06/27 00:34:23;;;;;;;4.30;1.83;;;19.10;51.70;;;;;;5016172;28;20498;-72
2023/06/27 00:36:48;;;;;;;2.60;1.58;;;19.10;51.90;;;;;;4998598;28;20048;-73
2023/06/27 00:39:14;;;;;;;4.80;1.80;;;19.00;51.90;;;;;;5016104;28;20084;-73
2023/06/27 00:41:39;;;;;;;5.10;1.70;;;18.90;52.20;;;;;;5016235;28;20112;-73
2023/06/27 00:44:08;;;;;;;3.35;1.65;;;18.90;52.20;;;;;;5016165;28;20021;-73
2023/06/27 00:46:38;;;;;;;3.78;1.90;;;18.90;52.30;;;;;;5016675;28;20467;-74
2023/06/27 00:49:09;;;;;;;5.03;2.08;;;19.00;52.10;;;;;;5016483;28;20048;-72
2023/06/27 00:51:35;;;;;;;4.35;1.70;;;19.00;51.90;;;;;;5016047;28;20430;-72
2023/06/27 00:54:00;;;;;;;2.80;1.90;;;18.90;52.20;;;;;;5016047;28;20057;-72
2023/06/27 00:56:27;;;;;;;3.10;1.60;;;18.90;52.20;;;;;;5015996;28;20025;-72
2023/06/27 00:59:00;;;;;;;3.70;1.90;;;18.80;52.30;;;;;;5015831;28;20026;-72
2023/06/27 01:01:26;;;;;;;6.25;2.20;;;18.60;53.90;;;;;;5015956;28;20038;-72
2023/06/27 01:03:52;;;;;;;5.15;2.00;;;18.60;53.00;;;;;;5015591;28;20026;-73
2023/06/27 01:06:38;;;;;;;3.25;1.73;;;18.50;53.20;;;;;;5015573;28;20414;-72
2023/06/27 01:09:06;;;;;;;;;;;18.50;53.50;;;;;;5015983;28;20042;-72
2023/06/27 01:11:47;;;;;;;5.43;1.92;;;18.40;53.60;;;;;;5015517;28;19912;-72
2023/06/27 01:14:15;;;;;;;4.70;1.73;;;18.30;54.10;;;;;;5015596;28;20054;-72
2023/06/27 01:16:44;;;;;;;4.82;1.92;;;18.20;54.30;;;;;;5015629;28;20118;-72
2023/06/27 01:19:12;;;;;;;4.72;2.00;;;18.20;54.70;;;;;;5015505;28;20018;-72
2023/06/27 01:21:39;;;;;;;3.58;1.75;;;18.10;55.10;;;;;;5015482;28;20030;-72
2023/06/27 01:24:07;;;;;;;3.28;1.80;;;18.10;55.30;;;;;;5015371;28;21115;-72
2023/06/27 01:26:33;;;;;;;4.13;1.92;;;18.00;55.40;;;;;;5015728;28;20096;-72
2023/06/27 01:28:59;;;;;;;3.35;1.60;;;18.00;55.40;;;;;;5015469;28;20106;-72
2023/06/27 01:31:49;;;;;;;7.28;1.85;;;18.00;55.40;;;;;;5015327;28;20463;-72
2023/06/27 01:34:17;;;;;;;3.70;1.60;;;18.00;55.50;;;;;;5015254;28;20422;-72
2023/06/27 01:36:53;;;;;;;4.60;1.80;;;17.90;55.60;;;;;;5015190;28;20363;-72
2023/06/27 01:39:25;;;;;;;3.95;1.83;;;17.80;56.10;;;;;;5015023;28;20052;-72
2023/06/27 01:41:54;;;;;;;5.22;2.20;;;17.70;56.30;;;;;;4996967;28;20049;-72
2023/06/27 01:44:22;;;;;;;3.85;2.05;;;17.70;56.50;;;;;;5014881;28;20053;-73
2023/06/27 01:46:49;;;;;;;5.25;1.83;;;17.70;56.60;;;;;;5015184;28;20405;-73
2023/06/27 01:49:16;;;;;;;5.45;2.00;;;17.70;56.70;;;;;;5015023;28;20032;-73
2023/06/27 01:51:41;;;;;;;5.05;1.92;;;17.60;57.00;;;;;;5015074;28;20072;-71
2023/06/27 01:54:07;;;;;;;6.43;1.95;;;17.60;56.90;;;;;;5014945;28;20030;-73
2023/06/27 01:56:33;;;;;;;5.20;2.33;;;17.60;56.90;;;;;;4997185;28;20030;-72
2023/06/27 01:58:58;;;;;;;4.90;2.00;;;17.60;56.80;;;;;;5015042;28;20028;-71
2023/06/27 02:01:24;;;;;;;3.85;2.10;;;17.60;56.60;;;;;;5014779;28;20106;-72
2023/06/27 02:03:49;;;;;;;7.43;1.98;;;17.50;56.70;;;;;;5015057;28;20036;-72
2023/06/27 02:06:15;;;;;;;3.95;2.10;;;17.50;56.80;;;;;;5014645;28;20429;-71
2023/06/27 02:08:41;;;;;;;4.43;2.00;;;17.40;57.20;;;;;;5014640;28;20112;-72
2023/06/27 02:11:07;;;;;;;6.65;2.03;;;17.50;57.20;;;;;;5014598;28;20060;-72
2023/06/27 02:13:37;;;;;;;5.20;1.90;;;17.40;57.00;;;;;;5014550;28;20428;-72
2023/06/27 02:16:03;;;;;;;6.18;2.38;;;17.30;57.00;;;;;;5014528;28;20018;-71
2023/06/27 02:18:29;;;;;;;6.47;2.40;;;17.30;56.90;;;;;;5014337;28;20029;-71
2023/06/27 02:20:54;;;;;;;3.72;1.80;;;17.40;57.00;;;;;;5014378;28;20044;-70
2023/06/27 02:23:20;;;;;;;8.20;2.65;;;17.40;56.90;;;;;;4996797;28;20022;-70
2023/06/27 02:25:45;;;;;;;6.45;2.25;;;17.30;57.10;;;;;;5014278;28;20076;-71
2023/06/27 02:28:11;;;;;;;4.82;2.42;;;17.40;56.80;;;;;;5014764;28;20037;-70
2023/06/27 02:30:36;;;;;;;5.68;2.30;;;17.40;56.80;;;;;;5014359;28;20038;-73
2023/06/27 02:33:02;;;;;;;5.30;1.95;;;17.40;56.90;;;;;;5014176;28;20091;-78
2023/06/27 02:35:27;;;;;;;2.47;1.77;;;17.40;56.80;;;;;;5014210;28;20025;-71
2023/06/27 02:37:53;;;;;;;5.57;2.22;;;17.40;56.80;;;;;;5014169;28;20451;-71
2023/06/27 02:40:19;;;;;;;5.32;2.17;;;17.40;56.90;;;;;;5014095;28;20025;-71
2023/06/27 02:42:45;;;;;;;5.32;1.98;;;17.40;56.90;;;;;;5014021;28;20025;-71
2023/06/27 02:45:10;;;;;;;4.18;2.05;;;17.40;56.80;;;;;;5013868;28;20509;-72
2023/06/27 02:47:36;;;;;;;5.40;2.47;;;17.30;56.70;;;;;;5013875;28;20022;-70
2023/06/27 02:50:02;;;;;;;3.00;1.80;;;17.20;57.10;;;;;;5013986;28;20029;-72
2023/06/27 02:52:28;;;;;;;4.22;1.63;;;17.20;57.30;;;;;;5013731;28;20133;-73
2023/06/27 02:54:53;;;;;;;5.90;1.88;;;17.20;57.40;;;;;;5013267;28;20057;-74
2023/06/27 02:57:20;;;;;;;5.38;2.17;;;17.10;57.50;;;;;;5013778;28;20479;-72
2023/06/27 02:59:45;;;;;;;5.32;2.15;;;17.10;57.70;;;;;;5013954;28;20060;-73
2023/06/27 03:02:11;;;;;;;6.65;1.83;;;17.10;57.90;;;;;;5013677;28;20470;-72
2023/06/27 03:04:37;;;;;;;5.93;2.30;;;17.00;58.00;;;;;;5013696;28;20423;-72
2023/06/27 03:07:03;;;;;;;5.88;2.10;;;17.00;58.30;;;;;;5013645;28;20045;-73
2023/06/27 03:09:28;;;;;;;3.67;1.80;;;17.00;58.40;;;;;;5013451;28;20038;-72
2023/06/27 03:11:54;;;;;;;5.20;2.00;;;17.00;58.50;;;;;;5013247;28;20021;-72
2023/06/27 03:14:20;;;;;;;6.10;2.10;;;16.90;58.70;;;;;;5013329;28;20030;-72
2023/06/27 03:16:45;;;;;;;4.95;2.15;;;17.00;58.70;;;;;;5013577;28;20022;-72
2023/06/27 03:19:11;;;;;;;3.30;1.85;;;17.10;58.50;;;;;;5013363;28;20022;-72
2023/06/27 03:21:36;;;;;;;3.72;1.75;;;17.10;58.50;;;;;;5013520;28;20041;-72
2023/06/27 03:24:02;;;;;;;5.60;2.30;;;17.10;58.20;;;;;;5013407;28;20052;-71
2023/06/27 03:26:28;;;;;;;4.40;2.17;;;17.10;58.50;;;;;;5013336;28;20474;-73
2023/06/27 03:28:56;;;;;;;5.97;2.13;;;17.00;58.40;;;;;;5013157;28;20025;-74
2023/06/27 03:31:22;;;;;;;4.32;2.08;;;17.10;58.40;;;;;;5013225;28;20056;-74
2023/06/27 03:33:48;;;;;;;4.82;2.50;;;17.00;57.90;;;;;;5013442;28;20097;-73
2023/06/27 03:36:13;;;;;;;5.10;2.50;;;16.90;58.40;;;;;;4995540;28;20026;-72
2023/06/27 03:38:39;;;;;;;7.15;2.88;;;16.90;58.80;;;;;;5013199;28;20029;-72
2023/06/27 03:41:05;;;;;;;3.80;2.60;;;16.90;58.60;;;;;;5013038;28;20065;-72
2023/06/27 03:43:31;;;;;;;5.05;2.80;;;16.90;58.40;;;;;;5013014;28;20018;-75
2023/06/27 03:45:56;;;;;;;5.13;2.88;;;17.00;58.30;;;;;;5013047;28;20030;-71
2023/06/27 03:48:22;;;;;;;4.28;2.40;;;17.00;58.40;;;;;;5012935;28;20022;-71
2023/06/27 03:50:47;;;;;;;4.60;2.88;;;17.00;58.50;;;;;;5013050;28;20053;-72
2023/06/27 03:53:13;;;;;;;4.47;2.45;;;16.90;58.40;;;;;;5012631;28;20486;-71
2023/06/27 03:55:40;;;;;;;5.40;2.67;;;17.00;58.20;;;;;;5012639;28;20058;-71
2023/06/27 03:58:06;;;;;;;6.22;3.45;;;17.10;58.30;;;;;;5012706;28;20068;-71
2023/06/27 04:00:32;;;;;;;7.13;3.22;;;17.10;58.50;;;;;;5012955;28;20034;-71
2023/06/27 04:02:58;;;;;;;4.57;2.72;;;17.10;58.90;;;;;;5012819;28;20029;-71
2023/06/27 04:05:23;;;;;;;5.45;2.78;;;17.00;59.00;;;;;;5012697;28;20037;-71
2023/06/27 04:07:49;;;;;;;6.63;2.72;;;17.00;58.30;;;;;;5016068;28;20072;-71
2023/06/27 04:10:15;;;;;;;5.03;2.30;;;16.90;58.50;;;;;;5016946;28;20037;-71
2023/06/27 04:12:41;;;;;;;3.40;2.08;;;16.90;58.70;;;;;;5016452;28;20022;-71
2023/06/27 04:15:07;;;;;;;7.00;2.63;;;17.00;58.70;;;;;;5016609;28;20022;-71
2023/06/27 04:17:32;;;;;;;3.22;2.50;;;17.10;58.70;;;;;;5016568;28;20030;-71
2023/06/27 04:19:58;;;;;;;5.15;2.80;;;17.10;58.60;;;;;;4999193;28;20506;-71
2023/06/27 04:22:24;;;;;;;6.40;2.92;;;17.20;58.50;;;;;;4999075;28;20026;-71
2023/06/27 04:24:49;;;;;;;6.65;3.15;;;17.20;58.40;;;;;;4998951;28;20033;-72
2023/06/27 04:27:15;;;;;;;5.07;2.22;;;17.20;58.30;;;;;;5016555;28;20030;-71
2023/06/27 04:29:41;;;;;;;6.78;2.38;;;17.30;57.90;;;;;;5016441;28;20026;-71
2023/06/27 04:32:09;;;;;;;6.10;2.53;;;17.30;57.60;;;;;;4999098;28;20108;-72
2023/06/27 04:34:36;;;;;;;6.20;2.30;;;17.30;57.40;;;;;;5016312;28;20026;-71
2023/06/27 04:37:03;;;;;;;5.38;2.40;;;17.30;57.60;;;;;;5016318;28;20053;-73
2023/06/27 04:39:29;;;;;;;7.15;2.47;;;17.30;57.80;;;;;;5016545;28;20032;-73
2023/06/27 04:41:56;;;;;;;6.15;2.70;;;17.30;57.50;;;;;;5015914;28;20030;-72
2023/06/27 04:44:22;;;;;;;7.03;2.72;;;17.30;57.50;;;;;;5016309;28;20026;-74
2023/06/27 04:46:48;;;;;;;4.38;2.20;;;17.40;57.50;;;;;;5016234;28;20028;-72
2023/06/27 04:49:14;;;;;;;5.10;1.98;;;17.50;57.60;;;;;;5016184;28;20524;-72
2023/06/27 04:51:40;;;;;;;4.85;2.30;;;17.50;57.70;;;;;;5016165;28;20034;-73
2023/06/27 04:54:05;;;;;;;5.88;2.47;;;17.50;57.70;;;;;;5015856;28;20505;-71
2023/06/27 04:56:31;;;;;;;5.38;2.08;;;17.60;57.70;;;;;;5015909;28;20041;-72
2023/06/27 04:58:56;;;;;;;4.47;2.22;;;17.50;57.10;;;;;;5016259;28;20022;-71
2023/06/27 05:01:22;;;;;;;4.10;2.25;;;17.50;58.00;;;;;;4997920;28;20034;-72
2023/06/27 05:03:48;;;;;;;5.70;2.22;;;17.60;57.60;;;;;;4998049;28;20053;-71
2023/06/27 05:06:14;;;;;;;5.72;2.03;;;17.60;57.40;;;;;;5015673;28;20030;-72
2023/06/27 05:08:40;;;;;;;8.32;2.58;;;17.50;57.00;;;;;;4998085;28;20045;-72
2023/06/27 05:11:05;;;;;;;5.60;2.20;;;17.60;56.90;;;;;;5015667;28;20026;-72
2023/06/27 05:13:31;;;;;;;6.07;2.58;;;17.50;56.80;;;;;;4997898;28;20045;-72
2023/06/27 05:15:57;;;;;;;4.95;2.40;;;17.60;57.00;;;;;;4997863;28;20394;-72
2023/06/27 05:18:24;;;;;;;5.55;2.65;;;17.60;56.90;;;;;;4997043;28;20036;-73
2023/06/27 05:20:50;;;;;;;4.55;2.45;;;17.60;57.00;;;;;;4997570;28;20034;-72
2023/06/27 05:23:15;;;;;;;6.35;2.90;;;17.60;57.60;;;;;;4997527;28;20428;-72
2023/06/27 05:25:41;;;;;;;5.90;2.95;;;17.70;57.40;;;;;;4997772;28;20194;-73
2023/06/27 05:28:08;;;;;;;6.35;2.53;;;17.70;58.10;;;;;;4997802;28;20025;-73
2023/06/27 05:30:33;;;;;;;4.03;2.08;;;17.80;57.20;;;;;;4998142;28;20037;-74
2023/06/27 05:32:59;;;;;;;6.72;2.60;;;17.80;57.20;;;;;;4997396;28;20022;-73
2023/06/27 05:35:24;;;;;;;4.82;2.42;;;17.90;57.10;;;;;;5014869;28;20060;-73
2023/06/27 05:37:51;;;;;;;5.25;2.22;;;17.90;57.10;;;;;;5015196;28;20030;-79
2023/06/27 05:40:16;;;;;;;10.68;2.85;;;18.00;57.20;;;;;;4997340;28;20034;-77
2023/06/27 05:42:42;;;;;;;6.30;2.60;;;18.00;57.20;;;;;;5033838;28;20021;-74
2023/06/27 05:45:09;;;;;;;4.75;2.55;;;18.10;57.40;;;;;;5054154;28;20047;-73
2023/06/27 05:47:34;;;;;;;8.55;2.65;;;18.20;57.20;;;;;;5054224;28;20021;-73
2023/06/27 05:50:00;;;;;;;6.43;2.70;;;18.30;57.10;;;;;;5054524;28;20381;-75
2023/06/27 05:52:28;;;;;;;4.60;2.45;;;18.30;57.00;;;;;;5054644;28;20033;-73
2023/06/27 05:54:54;;;;;;;5.90;2.60;;;18.50;57.00;;;;;;5054370;28;20389;-72
2023/06/27 05:57:20;;;;;;;6.57;4.22;;;18.50;56.60;;;;;;5054956;28;20029;-72
2023/06/27 05:59:45;;;;;;;5.88;2.95;;;18.70;56.40;;;;;;5036476;28;20517;-71
2023/06/27 06:02:11;;;;;;;6.10;2.90;;;18.80;56.10;;;;;;5054174;28;20112;-72
2023/06/27 06:04:37;;;;;;;6.28;2.88;;;18.90;55.80;;;;;;5054324;28;20017;-71
2023/06/27 06:07:03;;;;;;;5.82;2.20;;;19.00;55.20;;;;;;5054104;28;20071;-72
2023/06/27 06:09:30;;;;;;;6.00;2.40;;;19.20;54.80;;;;;;5053943;28;20049;-71
2023/06/27 06:11:56;;;;;;;7.95;3.95;;;19.30;54.70;;;;;;5053637;28;20036;-75
2023/06/27 06:14:21;;;;;;;6.40;3.15;;;19.40;54.40;;;;;;5036249;28;20025;-73
2023/06/27 06:16:47;;;;;;;4.20;2.17;;;19.50;54.30;;;;;;5036338;28;20075;-74
2023/06/27 06:19:13;;;;;;;4.82;2.28;;;19.50;54.10;;;;;;5053960;28;20108;-74
2023/06/27 06:21:39;;;;;;;4.60;1.98;;;19.60;54.10;;;;;;5054050;28;20035;-74
2023/06/27 06:24:04;;;;;;;5.00;2.40;;;19.50;54.10;;;;;;5053969;28;20104;-73
2023/06/27 06:26:30;;;;;;;4.78;2.28;;;19.60;54.00;;;;;;5053795;28;20675;-73
2023/06/27 06:28:56;;;;;;;6.05;2.75;;;19.60;53.20;;;;;;5035233;28;20025;-71
2023/06/27 06:31:23;;;;;;;6.55;2.20;;;19.70;52.60;;;;;;5053507;28;20025;-72
2023/06/27 06:33:49;;;;;;;5.93;2.53;;;19.80;51.70;;;;;;5053814;28;20487;-73
2023/06/27 06:36:15;;;;;;;6.88;3.00;;;19.90;50.80;;;;;;5035924;28;20108;-71
2023/06/27 06:38:40;;;;;;;6.45;2.78;;;19.90;50.90;;;;;;5036159;28;20120;-75
2023/06/27 06:41:06;;;;;;;7.25;2.92;;;20.00;50.60;;;;;;5036251;28;20121;-72
2023/06/27 06:43:32;;;;;;;11.85;2.92;;;20.10;50.50;;;;;;5036305;28;20025;-73
2023/06/27 06:45:58;;;;;;;10.27;2.80;;;20.00;50.50;;;;;;5035569;28;20454;-72
2023/06/27 06:48:23;;;;;;;6.32;2.63;;;19.90;49.80;;;;;;5053541;28;20021;-72
2023/06/27 06:50:53;;;;;;;6.07;2.78;;;19.60;50.20;;;;;;5053437;28;20390;-72
2023/06/27 06:53:19;;;;;;;8.70;2.42;;;19.60;50.00;;;;;;5053462;28;20083;-72
2023/06/27 06:55:45;;;;;;;11.23;2.72;;;19.70;49.70;;;;;;5053465;28;20033;-75
2023/06/27 06:58:10;;;;;;;7.63;2.33;;;20.00;48.90;;;;;;5053702;28;20526;-72
2023/06/27 07:00:36;;;;;;;5.45;2.80;;;20.10;48.60;;;;;;5053478;28;20090;-73
2023/06/27 07:03:08;;;;;;;8.27;2.45;;;20.30;48.90;;;;;;5036061;28;20389;-73
2023/06/27 07:05:34;;;;;;;5.30;2.40;;;20.40;47.90;;;;;;5053462;28;20032;-73
2023/06/27 07:08:00;;;;;;;7.90;2.65;;;20.60;47.60;;;;;;5053015;28;20036;-73
2023/06/27 07:10:25;;;;;;;5.90;2.28;;;20.70;46.40;;;;;;5035165;28;20033;-74
2023/06/27 07:12:51;;;;;;;5.38;2.65;;;20.80;45.90;;;;;;5035322;28;20036;-72
2023/06/27 07:15:17;;;;;;;6.20;2.35;;;21.00;46.00;;;;;;5052910;28;20374;-73
2023/06/27 07:17:44;;;;;;;5.90;2.47;;;21.00;46.00;;;;;;5036308;28;20432;-73
2023/06/27 07:20:10;;;;;;;10.98;2.70;;;21.10;46.00;;;;;;5035032;28;20410;-73
2023/06/27 07:22:36;;;;;;;7.70;2.70;;;21.20;46.00;;;;;;5034501;28;20025;-72
2023/06/27 07:25:01;;;;;;;8.38;2.22;;;21.20;45.70;;;;;;5052595;28;20041;-72
2023/06/27 07:27:27;;;;;;;12.45;2.95;;;21.30;45.30;;;;;;5053144;28;20035;-72
2023/06/27 07:29:53;;;;;;;7.03;2.55;;;21.50;46.50;;;;;;5035155;28;20059;-72
2023/06/27 07:32:19;;;;;;;9.05;2.55;;;21.60;43.70;;;;;;5034973;28;20032;-72
2023/06/27 07:34:44;;;;;;;7.32;2.78;;;21.40;43.00;;;;;;5034693;28;20028;-72
2023/06/27 07:37:10;;;;;;;5.00;2.20;;;21.20;44.10;;;;;;5052724;28;20028;-73
2023/06/27 07:39:37;;;;;;;6.95;2.35;;;21.20;44.30;;;;;;5052740;28;20029;-73
2023/06/27 07:42:03;;;;;;;10.27;2.70;;;21.40;44.60;;;;;;5034727;28;20032;-72
2023/06/27 07:44:29;;;;;;;7.38;2.50;;;21.60;44.80;;;;;;5035753;28;20378;-71
2023/06/27 07:46:54;;;;;;;8.43;3.08;;;21.90;44.30;;;;;;5052942;28;20482;-72
2023/06/27 07:49:21;;;;;;;5.90;2.35;;;22.10;43.60;;;;;;5034737;28;20017;-75
2023/06/27 07:51:51;;;;;;;5.28;2.20;;;22.40;42.60;;;;;;5053037;28;20042;-73
2023/06/27 07:54:17;;;;;;;8.05;2.92;;;22.60;41.60;;;;;;5053291;28;20028;-74
2023/06/27 07:56:43;;;;;;;7.97;2.97;;;22.60;41.40;;;;;;5053096;28;20108;-70
2023/06/27 07:59:11;;;;;;;5.63;2.25;;;22.80;40.70;;;;;;5052624;28;20060;-70
2023/06/27 08:01:36;;;;;;;9.05;2.25;;;22.80;40.20;;;;;;5034444;28;20033;-71
2023/06/27 08:04:02;;;;;;;6.15;2.58;;;22.80;40.50;;;;;;5052351;28;20086;-70
2023/06/27 08:06:27;;;;;;;7.40;2.38;;;22.80;40.60;;;;;;5053532;28;20029;-70
2023/06/27 08:08:53;;;;;;;7.82;2.42;;;22.80;40.50;;;;;;5053071;28;20049;-70
2023/06/27 08:11:19;;;;;;;3.63;2.13;;;22.80;39.30;;;;;;5053696;28;20025;-72
2023/06/27 08:13:44;;;;;;;4.95;2.17;;;23.00;39.70;;;;;;5053555;28;20018;-71
2023/06/27 08:16:10;;;;;;;8.52;3.35;;;23.20;39.20;;;;;;5035910;28;20025;-70
2023/06/27 08:18:36;;;;;;;3.78;2.05;;;23.30;38.30;;;;;;5053091;28;20025;-70
2023/06/27 08:21:04;;;;;;;7.03;2.53;;;23.30;38.50;;;;;;5034654;28;20048;-71
2023/06/27 08:23:29;;;;;;;8.40;3.20;;;23.40;38.80;;;;;;5051929;28;20385;-70
2023/06/27 08:25:55;;;;;;;4.88;2.10;;;23.40;38.70;;;;;;5052038;28;20035;-71
2023/06/27 08:28:21;;;;;;;8.05;2.72;;;23.40;38.40;;;;;;5052370;28;20028;-71
2023/06/27 08:30:46;;;;;;;5.25;2.38;;;23.20;38.20;;;;;;5052384;28;20057;-70
2023/06/27 08:33:12;;;;;;;5.75;2.80;;;23.10;39.20;;;;;;5052988;28;20100;-71
2023/06/27 08:35:38;;;;;;;7.57;2.85;;;22.90;38.90;;;;;;5052466;28;20038;-70
2023/06/27 08:38:04;;;;;;;6.82;2.40;;;22.90;39.90;;;;;;5051935;28;20032;-70
2023/06/27 08:40:33;;;;;;;5.20;2.03;;;23.10;39.40;;;;;;5052319;28;20029;-71
2023/06/27 08:42:59;;;;;;;5.05;2.00;;;23.40;38.50;;;;;;5052057;28;20026;-70
2023/06/27 08:45:25;;;;;;;7.78;2.35;;;23.70;37.60;;;;;;5052037;28;20021;-71
2023/06/27 08:47:51;;;;;;;5.07;2.38;;;24.00;36.90;;;;;;5052170;28;20155;-72
2023/06/27 08:50:20;;;;;;;6.82;2.40;;;24.20;36.40;;;;;;5033813;28;20503;-71
2023/06/27 08:52:57;;;;;;;4.93;1.80;;;24.40;35.40;;;;;;5053102;28;20017;-72
2023/06/27 08:55:31;;;;;;;6.80;2.22;;;24.20;35.20;;;;;;5037545;28;20021;-73
2023/06/27 08:57:58;;;;;;;8.20;2.22;;;24.10;35.50;;;;;;5055308;28;20024;-70
2023/06/27 09:00:26;;;;;;;7.72;2.63;;;24.00;35.50;;;;;;5053846;28;20033;-71
2023/06/27 09:02:52;;;;;;;4.45;1.98;;;23.60;35.90;;;;;;5054869;28;20063;-73
2023/06/27 09:05:19;;;;;;;6.95;2.10;;;23.60;36.50;;;;;;5054697;28;20367;-73
2023/06/27 09:07:44;;;;;;;9.95;3.10;;;23.40;36.10;;;;;;5037197;28;20032;-74
2023/06/27 09:10:10;;;;;;;6.28;2.78;;;23.20;36.50;;;;;;5055071;28;20029;-74
2023/06/27 09:12:37;;;;;;;4.10;2.08;;;22.80;36.80;;;;;;5036795;28;20017;-74
2023/06/27 09:15:05;;;;;;;7.03;2.75;;;22.70;36.10;;;;;;5054953;28;20021;-73
2023/06/27 09:17:31;;;;;;;5.85;2.67;;;22.50;36.90;;;;;;5054558;28;20481;-73
2023/06/27 09:19:56;;;;;;;4.63;2.17;;;22.60;36.90;;;;;;5054726;28;20037;-73
2023/06/27 09:22:23;;;;;;;3.90;2.17;;;22.90;36.80;;;;;;5054724;28;20033;-74
2023/06/27 09:24:49;;;;;;;6.63;2.88;;;23.20;35.70;;;;;;5036760;28;20547;-72
2023/06/27 09:27:31;;;;;;;5.22;2.20;;;23.20;36.90;;;;;;5036570;28;20029;-72
2023/06/27 09:30:05;;;;;;;5.85;2.15;;;23.10;34.80;;;;;;5054486;28;20067;-72
2023/06/27 09:32:31;;;;;;;10.38;3.03;;;23.00;35.40;;;;;;5036921;28;20025;-73
2023/06/27 09:35:00;;;;;;;4.22;2.15;;;22.80;35.00;;;;;;5044200;28;20029;-72
2023/06/27 09:37:31;;;;;;;5.97;1.92;;;22.90;34.90;;;;;;5007152;28;20037;-72
2023/06/27 09:39:57;;;;;;;7.05;2.30;;;23.10;35.30;;;;;;5023643;28;20341;-71
2023/06/27 09:42:23;;;;;;;5.75;1.75;;;23.30;35.30;;;;;;5018402;28;20034;-71
2023/06/27 09:44:48;;;;;;;8.48;2.30;;;23.60;34.80;;;;;;5015261;28;20029;-74
2023/06/27 09:47:14;;;;;;;7.22;2.20;;;23.90;34.90;;;;;;5015270;28;20037;-72
2023/06/27 09:49:43;;;;;;;7.18;2.13;;;24.10;34.60;;;;;;5014849;28;20053;-73
2023/06/27 09:52:11;;;;;;;6.75;2.60;;;24.20;34.20;;;;;;5014708;28;20034;-72
2023/06/27 09:54:46;;;;;;;8.98;2.70;;;24.20;34.90;;;;;;5014559;28;20485;-72
2023/06/27 09:57:13;;;;;;;4.70;2.28;;;23.60;35.00;;;;;;5014821;28;20036;-72
2023/06/27 09:59:39;;;;;;;10.07;2.42;;;23.40;35.60;;;;;;5014598;28;20335;-72
2023/06/27 10:02:14;;;;;;;5.60;1.90;;;23.50;35.00;;;;;;5024533;28;20540;-73
2023/06/27 10:04:40;;;;;;;5.95;2.22;;;23.70;35.50;;;;;;5031194;28;20057;-73
2023/06/27 10:07:08;;;;;;;6.55;2.10;;;24.00;34.70;;;;;;5021264;28;20116;-74
2023/06/27 10:09:37;;;;;;;4.72;2.33;;;24.30;33.90;;;;;;5014236;28;20441;-72
2023/06/27 10:12:04;;;;;;;4.22;1.95;;;24.70;33.50;;;;;;5014045;28;20052;-72
2023/06/27 10:14:32;;;;;;;8.80;2.22;;;25.00;33.10;;;;;;4996690;28;20097;-73
2023/06/27 10:16:58;;;;;;;5.20;2.13;;;25.10;31.90;;;;;;5014313;28;20470;-72
2023/06/27 10:19:25;;;;;;;3.00;1.92;;;24.90;31.50;;;;;;5013887;28;20033;-73
2023/06/27 10:21:51;;;;;;;6.20;2.40;;;24.80;32.20;;;;;;5014171;28;20037;-72
2023/06/27 10:24:17;;;;;;;4.78;2.15;;;24.50;31.80;;;;;;5014093;28;20022;-72
2023/06/27 10:26:51;;;;;;;6.28;2.35;;;24.50;31.30;;;;;;4996466;28;20123;-73
2023/06/27 10:29:16;;;;;;;5.20;2.22;;;24.30;32.20;;;;;;5014073;28;20022;-73
2023/06/27 10:31:49;;;;;;;10.10;2.65;;;24.30;33.20;;;;;;5013642;28;20094;-76
2023/06/27 10:34:24;;;;;;;5.07;2.03;;;24.00;30.60;;;;;;5013929;28;20351;-74
2023/06/27 10:36:57;;;;;;;3.88;2.20;;;23.50;30.10;;;;;;5024010;28;20505;-72
2023/06/27 10:39:36;;;;;;;7.65;2.05;;;23.60;30.10;;;;;;5006624;28;20030;-72
2023/06/27 10:42:20;;;;;;;5.57;2.13;;;23.30;32.80;;;;;;5005945;28;20026;-72
2023/06/27 10:44:59;;;;;;;5.70;2.10;;;23.30;34.80;;;;;;5024084;28;20343;-72
2023/06/27 10:47:27;;;;;;;4.30;1.90;;;23.90;33.70;;;;;;5024320;28;20071;-73
2023/06/27 10:50:00;;;;;;;7.03;2.15;;;24.10;30.70;;;;;;5004538;28;20028;-71
2023/06/27 10:52:25;;;;;;;5.38;2.00;;;24.10;30.70;;;;;;5003832;28;20024;-74
2023/06/27 10:55:18;;;;;;;4.35;2.20;;;24.00;30.30;;;;;;5022514;28;20429;-73
2023/06/27 10:57:45;;;;;;;7.65;2.58;;;24.20;29.80;;;;;;5005448;28;20010;-75
2023/06/27 11:00:34;;;;;;;4.15;2.13;;;24.20;29.00;;;;;;5019491;28;20033;-73
2023/06/27 11:03:03;;;;;;;3.40;2.13;;;24.20;29.10;;;;;;5021522;28;20029;-73
2023/06/27 11:05:44;;;;;;;4.07;2.38;;;24.40;29.80;;;;;;5021220;28;20034;-74
2023/06/27 11:08:12;;;;;;;5.68;1.75;;;24.30;25.00;;;;;;5012866;28;20029;-75
2023/06/27 11:11:06;;;;;;;7.43;2.10;;;24.20;24.20;;;;;;5012990;28;20105;-76
2023/06/27 11:13:45;;;;;;;4.35;2.25;;;24.20;25.70;;;;;;5012937;28;20542;-73
2023/06/27 11:16:13;;;;;;;5.68;2.17;;;24.20;23.70;;;;;;5012684;28;20032;-72
2023/06/27 11:18:39;;;;;;;8.07;1.92;;;23.70;25.50;;;;;;5012805;28;20148;-73
2023/06/27 11:21:05;;;;;;;3.50;2.00;;;24.00;25.60;;;;;;5012534;28;20440;-72
2023/06/27 11:23:31;;;;;;;4.47;1.80;;;24.10;26.00;;;;;;5012739;28;20121;-72
2023/06/27 11:25:56;;;;;;;5.18;2.40;;;24.20;26.00;;;;;;5012608;28;20057;-73
2023/06/27 11:28:23;;;;;;;4.70;2.03;;;24.30;27.00;;;;;;5012602;28;20057;-74
2023/06/27 11:30:49;;;;;;;3.78;2.22;;;24.60;25.20;;;;;;5015090;28;20080;-74
2023/06/27 11:33:23;;;;;;;4.50;1.83;;;24.80;23.80;;;;;;5013126;28;20026;-74
2023/06/27 11:35:49;;;;;;;2.63;1.90;;;25.00;22.50;;;;;;5020831;28;20049;-70
2023/06/27 11:38:14;;;;;;;4.60;2.08;;;24.80;22.90;;;;;;5031403;28;20060;-75
2023/06/27 11:40:51;;;;;;;5.43;2.15;;;24.90;23.90;;;;;;5032090;28;20475;-73
2023/06/27 11:43:18;;;;;;;5.53;2.35;;;25.10;24.00;;;;;;5032463;28;20104;-76
2023/06/27 11:45:48;;;;;;;3.80;1.35;;;24.90;23.30;;;;;;5031793;28;20500;-77
2023/06/27 11:48:14;;;;;;;6.75;1.98;;;25.00;24.30;;;;;;5031802;28;20533;-70
2023/06/27 11:51:06;;;;;;;4.82;2.00;;;25.20;24.80;;;;;;5013812;28;20360;-71
2023/06/27 11:53:33;;;;;;;5.22;1.85;;;25.40;22.10;;;;;;5032312;28;20018;-72
2023/06/27 11:55:59;;;;;;;3.90;1.85;;;25.80;22.30;;;;;;5032729;28;20033;-74
2023/06/27 11:58:32;;;;;;;2.80;1.65;;;25.70;20.00;;;;;;5032195;28;20018;-76
2023/06/27 12:00:59;;;;;;;3.75;1.80;;;25.60;18.40;;;;;;5032193;28;20057;-78
2023/06/27 12:03:26;;;;;;;2.58;2.00;;;25.50;19.40;;;;;;5032305;28;20174;-79
2023/06/27 12:05:55;;;;;;;7.40;1.95;;;25.10;21.40;;;;;;5032122;28;20084;-78
2023/06/27 12:08:22;;;;;;;4.75;1.65;;;25.20;22.70;;;;;;5032229;28;20044;-76
2023/06/27 12:10:51;;;;;;;3.72;1.70;;;25.50;23.50;;;;;;5026353;28;20034;-74
2023/06/27 12:13:16;;;;;;;4.53;1.95;;;25.50;20.00;;;;;;5020208;28;20013;-79
2023/06/27 12:15:44;;;;;;;4.63;2.30;;;25.70;20.20;;;;;;5021421;28;20034;-78
2023/06/27 12:18:11;;;;;;;6.88;2.15;;;26.00;21.10;;;;;;5021479;28;20020;-74
2023/06/27 12:20:42;;;;;;;6.28;2.15;;;25.60;21.60;;;;;;5022879;28;20057;-74
2023/06/27 12:23:09;;;;;;;6.88;2.47;;;25.00;22.00;;;;;;5022069;28;20018;-75
2023/06/27 12:25:39;;;;;;;6.53;2.55;;;24.80;22.70;;;;;;5018104;28;20397;-72
2023/06/27 12:28:06;;;;;;;6.63;3.33;;;24.70;21.90;;;;;;5006090;28;20022;-72
2023/06/27 12:30:31;;;;;;;4.35;2.80;;;24.60;20.00;;;;;;5024915;28;20029;-74
2023/06/27 12:32:57;;;;;;;5.35;2.00;;;24.60;20.10;;;;;;5026486;28;20101;-74
2023/06/27 12:35:22;;;;;;;5.10;1.83;;;24.80;21.60;;;;;;5025114;28;20101;-72
2023/06/27 12:37:48;;;;;;;5.00;2.25;;;25.00;23.80;;;;;;5007432;28;20029;-73
2023/06/27 12:40:17;;;;;;;4.13;2.00;;;25.50;23.10;;;;;;5026522;28;20048;-75
2023/06/27 12:42:44;;;;;;;4.15;1.90;;;25.20;21.80;;;;;;5024884;28;20021;-72
2023/06/27 12:45:13;;;;;;;6.32;1.92;;;24.90;22.30;;;;;;5029945;28;20527;-71
2023/06/27 12:47:43;;;;;;;4.50;2.03;;;25.00;22.70;;;;;;5035375;28;20029;-72